Time;durP1;ratioP1;P1;durP2;ratioP2;P2;SDS_P1;SDS_P2;PMS_P1;PMS_P2;Temp;Humidity;BMP_temperature;BMP_pressure;BME280_temperature;BME280_humidity;BME280_pressure;Samples;Min_cycle;Max_cycle;Signal;HPM_P1;HPM_P2
2023/06/16 12:32:17;;;;;;;4.47;2.15;;;22.60;99.90;;;;;;4586413;19;20011;-25
2023/06/16 12:33:51;;;;;;;2.78;2.00;;;22.60;99.90;;;;;;4589297;19;20022;-27
2023/06/16 12:35:25;;;;;;;3.30;2.10;;;22.60;99.90;;;;;;4590205;19;20347;-24
2023/06/16 12:37:06;;;;;;;3.90;2.00;;;22.60;99.90;;;;;;4589046;19;20110;-27
2023/06/16 12:38:40;;;;;;;;;;;22.60;99.90;;;;;;4592029;19;20510;-26
2023/06/16 12:40:14;;;;;;;3.03;2.10;;;22.60;99.90;;;;;;4590565;19;20269;-26
2023/06/16 12:41:56;;;;;;;3.20;2.08;;;22.60;99.90;;;;;;4590791;19;20046;-27
2023/06/16 12:43:29;;;;;;;2.97;2.35;;;22.60;99.90;;;;;;4590970;19;20014;-25
2023/06/16 12:45:02;;;;;;;2.83;1.90;;;22.60;99.90;;;;;;4590914;19;20007;-25
2023/06/16 12:46:37;;;;;;;3.22;2.58;;;22.60;99.90;;;;;;4589268;19;20014;-25
2023/06/16 12:48:08;;;;;;;2.05;1.85;;;22.60;99.90;;;;;;4589412;19;20025;-25
2023/06/16 12:49:41;;;;;;;4.38;2.15;;;22.60;99.90;;;;;;4589360;19;20030;-26
2023/06/16 12:51:12;;;;;;;;;;;22.60;99.90;;;;;;4591258;19;20018;-27
2023/06/16 12:52:44;;;;;;;2.65;2.10;;;22.60;99.90;;;;;;4589662;19;19945;-23
2023/06/16 12:54:17;;;;;;;3.17;2.60;;;22.60;99.90;;;;;;4590510;19;20040;-25
2023/06/16 12:55:50;;;;;;;4.07;3.00;;;22.70;99.90;;;;;;4590713;19;20384;-22
2023/06/16 12:57:22;;;;;;;6.18;3.20;;;22.60;99.90;;;;;;4591202;19;19998;-29
2023/06/16 12:58:55;;;;;;;4.55;2.60;;;22.60;99.90;;;;;;4589946;19;20013;-26
2023/06/16 13:00:27;;;;;;;2.03;1.80;;;22.60;99.90;;;;;;4590017;19;20349;-23
2023/06/16 13:01:59;;;;;;;3.25;2.00;;;22.60;99.90;;;;;;4590741;19;20015;-24
2023/06/16 13:03:30;;;;;;;2.35;2.15;;;22.60;99.90;;;;;;4589751;19;20022;-24
2023/06/16 13:05:01;;;;;;;4.40;2.15;;;22.60;99.90;;;;;;4589418;19;20015;-25
2023/06/16 13:06:32;;;;;;;4.00;2.28;;;22.60;99.90;;;;;;4590363;19;20007;-23
2023/06/16 13:08:05;;;;;;;5.88;3.40;;;22.60;99.90;;;;;;4590298;19;20007;-25
2023/06/16 13:09:37;;;;;;;3.50;2.75;;;22.60;99.90;;;;;;4590564;19;20011;-25
2023/06/16 13:11:23;;;;;;;2.95;2.13;;;22.50;99.90;;;;;;4589040;19;20006;-24
2023/06/16 13:12:58;;;;;;;4.45;2.40;;;22.50;99.90;;;;;;4589183;19;20096;-26
2023/06/16 13:14:30;;;;;;;4.80;3.10;;;22.50;99.90;;;;;;4589782;19;20006;-26
2023/06/16 13:16:03;;;;;;;4.30;3.00;;;22.50;99.90;;;;;;4589184;19;19998;-23
2023/06/16 13:17:36;;;;;;;4.53;2.67;;;22.50;99.90;;;;;;4589471;19;20482;-25
2023/06/16 13:19:07;;;;;;;4.80;3.17;;;22.50;99.90;;;;;;4588964;19;20019;-28
2023/06/16 13:20:39;;;;;;;;;;;22.50;99.90;;;;;;4590395;19;20018;-28
2023/06/16 13:22:10;;;;;;;3.60;2.78;;;22.50;99.90;;;;;;4588855;19;19926;-27
2023/06/16 13:23:45;;;;;;;3.97;3.08;;;22.50;99.90;;;;;;4588661;19;20501;-29
2023/06/16 13:25:18;;;;;;;5.80;2.67;;;22.50;99.90;;;;;;4588099;19;20035;-25
2023/06/16 13:26:50;;;;;;;2.22;1.52;;;22.50;99.90;;;;;;4587539;19;20014;-25
2023/06/16 13:28:21;;;;;;;;;;;22.50;99.90;;;;;;4588292;19;20474;-28
2023/06/16 13:29:52;;;;;;;4.65;3.42;;;22.50;99.90;;;;;;4589262;19;19915;-23
2023/06/16 13:31:24;;;;;;;5.32;2.67;;;22.50;99.90;;;;;;4589841;19;20125;-24
2023/06/16 13:32:57;;;;;;;4.10;2.80;;;22.50;99.90;;;;;;4587902;19;20364;-25
2023/06/16 13:34:28;;;;;;;3.80;2.63;;;22.40;99.90;;;;;;4588972;19;20010;-24
2023/06/16 13:35:59;;;;;;;;;;;22.50;99.90;;;;;;4589316;19;20065;-25
2023/06/16 13:37:31;;;;;;;3.87;2.60;;;22.50;99.90;;;;;;4589611;19;19932;-24
2023/06/16 13:39:04;;;;;;;3.38;2.50;;;22.40;99.90;;;;;;4592553;19;20412;-23
2023/06/16 13:40:37;;;;;;;4.22;3.40;;;22.40;99.90;;;;;;4592892;19;20018;-25
2023/06/16 13:42:08;;;;;;;3.13;2.55;;;22.40;99.90;;;;;;4593268;19;20014;-27
2023/06/16 13:43:42;;;;;;;4.05;3.00;;;22.40;99.90;;;;;;4593529;19;20003;-25
2023/06/16 13:45:15;;;;;;;4.25;2.83;;;22.40;99.90;;;;;;4593576;19;20073;-24
2023/06/16 13:46:48;;;;;;;3.97;2.80;;;22.40;99.90;;;;;;4594344;19;20466;-24
2023/06/16 13:48:21;;;;;;;4.55;2.78;;;22.40;99.90;;;;;;4593050;19;20018;-26
2023/06/16 13:49:52;;;;;;;4.25;3.20;;;22.40;99.90;;;;;;4593978;19;20484;-24
2023/06/16 13:51:24;;;;;;;4.65;3.25;;;22.40;99.90;;;;;;4594722;19;20010;-26
2023/06/16 13:52:56;;;;;;;4.75;3.05;;;22.40;99.90;;;;;;4592774;19;20341;-25
2023/06/16 13:54:28;;;;;;;4.38;3.33;;;22.40;99.90;;;;;;4593224;19;20018;-24
2023/06/16 13:55:59;;;;;;;4.20;3.22;;;22.40;99.90;;;;;;4593148;19;20019;-23
2023/06/16 13:57:30;;;;;;;4.25;3.50;;;22.40;99.90;;;;;;4593562;19;20073;-28
2023/06/16 13:59:03;;;;;;;5.45;3.00;;;22.40;99.90;;;;;;4592529;19;20014;-23
2023/06/16 14:00:35;;;;;;;5.63;3.60;;;22.40;99.90;;;;;;4593871;19;20007;-24
2023/06/16 14:02:40;;;;;;;3.60;2.83;;;22.40;99.90;;;;;;4593761;19;19991;-24
2023/06/16 14:04:11;;;;;;;4.72;3.67;;;22.40;99.90;;;;;;4593963;19;20447;-24
2023/06/16 14:05:43;;;;;;;4.40;3.72;;;22.40;99.90;;;;;;4591458;19;20014;-26
2023/06/16 14:07:16;;;;;;;4.68;3.90;;;22.40;99.90;;;;;;4592775;19;20011;-28
2023/06/16 14:08:49;;;;;;;6.55;3.63;;;22.40;99.90;;;;;;4592610;19;20015;-25
2023/06/16 14:10:21;;;;;;;5.13;3.70;;;22.40;99.90;;;;;;4592600;19;20014;-29
2023/06/16 14:11:52;;;;;;;4.85;3.60;;;22.40;99.90;;;;;;4593214;19;20019;-24
2023/06/16 14:13:23;;;;;;;4.50;4.07;;;22.40;99.90;;;;;;4594030;19;20011;-24
2023/06/16 14:14:56;;;;;;;5.63;4.18;;;22.40;99.90;;;;;;4594294;19;20006;-26
2023/06/16 14:16:29;;;;;;;5.50;4.25;;;22.30;99.90;;;;;;4593857;19;20018;-26
2023/06/16 14:18:01;;;;;;;4.65;3.72;;;22.40;99.90;;;;;;4593485;19;20485;-24
2023/06/16 14:19:32;;;;;;;5.03;4.47;;;22.40;99.90;;;;;;4592586;19;20474;-23
2023/06/16 14:21:03;;;;;;;5.78;5.03;;;22.40;99.90;;;;;;4592717;19;20024;-26
2023/06/16 14:22:36;;;;;;;5.63;4.82;;;22.40;99.90;;;;;;4592866;19;20478;-25
2023/06/16 14:24:07;;;;;;;5.95;4.72;;;22.40;99.90;;;;;;4593240;19;20019;-27
2023/06/16 14:25:41;;;;;;;5.78;4.97;;;22.40;99.90;;;;;;4591290;19;20499;-25
2023/06/16 14:27:13;;;;;;;5.82;4.93;;;22.40;99.90;;;;;;4593730;19;20018;-25
2023/06/16 14:28:44;;;;;;;5.78;5.15;;;22.40;99.90;;;;;;4592060;19;20463;-25
2023/06/16 14:30:18;;;;;;;6.00;5.05;;;22.40;99.90;;;;;;4592236;19;20040;-25
2023/06/16 14:31:50;;;;;;;7.05;5.25;;;22.40;99.90;;;;;;4591695;19;20015;-26
2023/06/16 14:33:22;;;;;;;6.88;4.88;;;22.40;99.90;;;;;;4591898;19;20039;-27
2023/06/16 14:34:53;;;;;;;7.55;5.28;;;22.40;99.90;;;;;;4592514;19;20027;-25
2023/06/16 14:36:25;;;;;;;8.00;5.00;;;22.40;99.90;;;;;;4592129;19;20035;-25
2023/06/16 14:37:56;;;;;;;8.60;5.75;;;22.40;99.90;;;;;;4592288;19;20014;-28
2023/06/16 14:39:29;;;;;;;;;;;22.40;99.90;;;;;;4593765;19;20017;-22
2023/06/16 14:41:00;;;;;;;8.73;5.60;;;22.40;99.90;;;;;;4593263;19;19915;-31
2023/06/16 14:42:33;;;;;;;10.50;6.10;;;22.50;99.90;;;;;;4593256;19;20014;-25
2023/06/16 14:44:04;;;;;;;10.50;7.57;;;22.40;99.90;;;;;;4593683;19;20027;-24
2023/06/16 14:45:37;;;;;;;11.57;7.68;;;22.50;99.90;;;;;;4591735;19;20005;-25
2023/06/16 14:47:08;;;;;;;12.65;9.90;;;22.50;99.90;;;;;;4592610;19;20021;-25
2023/06/16 14:48:40;;;;;;;16.77;10.18;;;22.50;99.90;;;;;;4592947;19;20014;-25
2023/06/16 14:50:12;;;;;;;16.58;9.63;;;22.40;99.90;;;;;;4589857;19;20010;-28
2023/06/16 14:51:44;;;;;;;11.75;9.63;;;22.30;99.90;;;;;;4591680;19;20020;-25
2023/06/16 14:53:16;;;;;;;14.38;9.38;;;22.20;99.90;;;;;;4592684;19;20037;-26
2023/06/16 14:54:49;;;;;;;14.38;9.73;;;22.10;99.90;;;;;;4591868;19;20112;-29
2023/06/16 14:56:21;;;;;;;13.18;9.45;;;22.10;99.90;;;;;;4590592;19;19999;-25
2023/06/16 14:57:53;;;;;;;13.45;9.57;;;22.10;99.90;;;;;;4591015;19;20018;-24
2023/06/16 14:59:27;;;;;;;14.55;8.80;;;22.10;99.90;;;;;;4592130;19;20359;-27
2023/06/16 15:00:58;;;;;;;15.02;9.70;;;22.10;99.90;;;;;;4593001;19;20049;-24
2023/06/16 15:02:30;;;;;;;15.80;9.75;;;22.10;99.90;;;;;;4592765;19;20007;-28
2023/06/16 15:04:03;;;;;;;15.98;9.48;;;22.10;99.90;;;;;;4592132;19;20011;-24
2023/06/16 15:05:34;;;;;;;13.52;9.82;;;22.10;99.90;;;;;;4590696;19;20043;-24
2023/06/16 15:07:05;;;;;;;12.52;9.15;;;22.20;99.90;;;;;;4592113;19;20010;-25
2023/06/16 15:08:38;;;;;;;10.38;8.68;;;22.20;99.90;;;;;;4593027;19;20024;-24
2023/06/16 15:10:10;;;;;;;11.45;8.45;;;22.20;99.90;;;;;;4591206;19;20010;-24
2023/06/16 15:11:41;;;;;;;12.15;8.50;;;22.20;99.90;;;;;;4591273;19;20011;-27
2023/06/16 15:13:14;;;;;;;13.55;9.20;;;22.30;99.90;;;;;;4592605;19;20003;-28
2023/06/16 15:14:46;;;;;;;;;;;22.30;99.90;;;;;;4592061;19;20484;-26
2023/06/16 15:16:18;;;;;;;12.50;8.63;;;22.30;99.90;;;;;;4592074;19;19939;-26
2023/06/16 15:17:50;;;;;;;;;;;22.30;99.90;;;;;;4592177;19;20086;-23
2023/06/16 15:19:22;;;;;;;9.88;8.18;;;22.40;99.90;;;;;;4592235;19;19925;-29
2023/06/16 15:20:54;;;;;;;11.85;8.55;;;22.40;99.90;;;;;;4591093;19;20490;-25
2023/06/16 15:22:27;;;;;;;13.00;8.63;;;22.40;99.90;;;;;;4590962;19;20019;-28
2023/06/16 15:23:59;;;;;;;13.10;8.50;;;22.40;99.90;;;;;;4591172;19;20045;-24
2023/06/16 15:25:31;;;;;;;9.98;7.15;;;22.50;99.90;;;;;;4591859;19;20329;-28
2023/06/16 15:27:03;;;;;;;15.07;8.55;;;22.50;99.90;;;;;;4592333;19;20022;-28
2023/06/16 15:28:36;;;;;;;15.20;7.70;;;22.50;99.90;;;;;;4589647;19;20066;-25
2023/06/16 15:30:08;;;;;;;9.20;7.88;;;22.50;99.90;;;;;;4590834;19;20467;-25
2023/06/16 15:31:39;;;;;;;13.50;8.23;;;22.60;99.90;;;;;;4589486;19;20475;-28
2023/06/16 15:33:11;;;;;;;10.90;8.10;;;22.60;99.90;;;;;;4591260;19;20018;-26
2023/06/16 15:34:43;;;;;;;9.77;7.85;;;22.60;99.90;;;;;;4592245;19;20418;-27
2023/06/16 15:36:15;;;;;;;7.82;6.72;;;22.60;99.90;;;;;;4592021;19;20359;-24
2023/06/16 15:37:46;;;;;;;9.27;8.27;;;22.60;99.90;;;;;;4592063;19;20019;-27
2023/06/16 15:39:23;;;;;;;6.80;5.75;;;22.60;99.90;;;;;;4591573;19;20355;-27
2023/06/16 15:40:54;;;;;;;10.95;6.93;;;22.70;99.90;;;;;;4590697;19;20018;-26
2023/06/16 15:42:26;;;;;;;8.70;6.85;;;22.70;99.90;;;;;;4591669;19;20009;-27
2023/06/16 15:43:57;;;;;;;9.90;7.20;;;22.70;99.90;;;;;;4590278;19;20010;-25
2023/06/16 15:45:29;;;;;;;12.48;7.18;;;22.70;99.90;;;;;;4591190;19;20036;-24
2023/06/16 15:47:01;;;;;;;8.38;6.85;;;22.70;99.90;;;;;;4590507;19;20019;-24
2023/06/16 15:48:33;;;;;;;8.27;6.65;;;22.70;99.90;;;;;;4591249;19;20474;-24
2023/06/16 15:50:05;;;;;;;8.32;6.78;;;22.80;99.90;;;;;;4591750;19;20010;-26
2023/06/16 15:51:38;;;;;;;10.38;7.25;;;22.80;99.90;;;;;;4591622;19;20017;-26
2023/06/16 15:53:10;;;;;;;9.75;5.85;;;22.80;99.90;;;;;;4589791;19;20055;-26
2023/06/16 15:54:42;;;;;;;5.72;4.70;;;22.80;99.90;;;;;;4590831;19;20014;-25
2023/06/16 15:56:14;;;;;;;4.95;4.10;;;22.80;99.90;;;;;;4590287;19;20015;-26
2023/06/16 15:57:45;;;;;;;4.95;4.30;;;22.80;99.90;;;;;;4591267;19;20006;-25
2023/06/16 15:59:16;;;;;;;8.23;4.90;;;22.90;99.90;;;;;;4586608;19;20041;-26
2023/06/16 16:40:08;;;;;;;7.75;5.30;;;23.30;99.90;;;;;;4586303;19;20014;-23
2023/06/16 16:41:42;;;;;;;7.13;5.63;;;23.30;99.90;;;;;;4589101;19;20474;-24
2023/06/16 16:43:14;;;;;;;8.00;5.47;;;23.20;99.90;;;;;;4591284;19;20062;-23
2023/06/16 16:44:45;;;;;;;;;;;23.20;99.90;;;;;;4591706;19;20722;-25
2023/06/16 16:46:17;;;;;;;7.85;5.80;;;23.30;99.90;;;;;;4588919;19;19990;-25
2023/06/16 16:47:48;;;;;;;8.20;5.65;;;23.30;99.90;;;;;;4589878;19;20362;-28
2023/06/16 16:49:20;;;;;;;8.85;6.50;;;23.20;99.90;;;;;;4589916;19;20837;-24
2023/06/16 16:50:54;;;;;;;12.50;5.60;;;23.30;99.90;;;;;;4587177;19;20184;-25
2023/06/16 16:52:26;;;;;;;7.78;5.53;;;23.20;99.90;;;;;;4592056;19;20015;-25
2023/06/16 16:53:57;;;;;;;;;;;23.30;99.90;;;;;;4589829;19;20033;-25
2023/06/16 16:55:30;;;;;;;7.95;5.47;;;23.30;99.90;;;;;;4589513;19;20267;-25
2023/06/16 16:57:02;;;;;;;6.50;4.82;;;23.30;99.90;;;;;;4590280;19;20038;-24
2023/06/16 16:58:35;;;;;;;5.35;3.97;;;23.30;99.90;;;;;;4589665;19;20047;-26
2023/06/16 17:00:08;;;;;;;6.25;3.58;;;23.30;99.90;;;;;;4590372;19;20381;-25
2023/06/16 17:01:39;;;;;;;5.40;3.60;;;23.30;99.90;;;;;;4590421;19;20046;-26
2023/06/16 17:03:10;;;;;;;4.50;3.95;;;23.40;99.90;;;;;;4590479;19;20037;-27
2023/06/16 17:04:41;;;;;;;5.18;4.47;;;23.50;99.90;;;;;;4590179;19;20015;-25
2023/06/16 17:06:14;;;;;;;7.63;5.07;;;23.70;99.90;;;;;;4588926;19;20014;-24
2023/06/16 17:07:45;;;;;;;7.45;4.88;;;23.70;99.90;;;;;;4590669;19;20032;-26
2023/06/16 17:09:16;;;;;;;8.07;4.70;;;23.90;99.90;;;;;;4590086;19;20044;-25
2023/06/16 17:10:48;;;;;;;6.40;5.10;;;24.00;99.90;;;;;;4589925;19;20353;-24
2023/06/16 17:12:19;;;;;;;6.97;4.80;;;24.10;99.90;;;;;;4588586;19;20018;-25
2023/06/16 17:13:51;;;;;;;6.88;4.75;;;24.20;99.90;;;;;;4591386;19;20486;-25
2023/06/16 17:15:22;;;;;;;8.02;4.45;;;24.20;99.90;;;;;;4593991;19;20066;-28
2023/06/16 17:16:53;;;;;;;6.68;4.15;;;24.30;99.90;;;;;;4595381;19;20041;-25
2023/06/16 17:18:25;;;;;;;7.75;5.15;;;24.40;99.90;;;;;;4595161;19;20056;-26
2023/06/16 17:19:56;;;;;;;10.95;5.28;;;24.40;99.90;;;;;;4588288;19;20487;-24
2023/06/16 17:21:27;;;;;;;6.72;4.55;;;24.40;99.90;;;;;;4592288;19;20078;-25
2023/06/16 17:23:00;;;;;;;7.07;4.40;;;24.40;99.90;;;;;;4594641;19;20014;-27
2023/06/16 17:24:32;;;;;;;6.47;4.50;;;24.40;99.90;;;;;;4594810;19;20417;-26
2023/06/16 17:26:03;;;;;;;7.15;4.93;;;24.40;99.90;;;;;;4593711;19;20010;-24
2023/06/16 17:27:34;;;;;;;13.63;6.18;;;24.40;99.90;;;;;;4593760;19;20343;-26
2023/06/16 17:29:06;;;;;;;7.32;4.60;;;24.40;99.90;;;;;;4591500;19;20082;-25
2023/06/16 17:30:37;;;;;;;7.63;5.00;;;24.40;99.90;;;;;;4592429;19;20015;-28
2023/06/16 17:32:09;;;;;;;7.72;4.40;;;24.40;99.90;;;;;;4594800;19;20078;-23
2023/06/16 17:33:40;;;;;;;7.97;4.60;;;24.40;99.90;;;;;;4592211;19;20578;-27
2023/06/16 17:35:12;;;;;;;7.35;4.68;;;24.40;99.90;;;;;;4592064;19;20014;-24
2023/06/16 17:36:44;;;;;;;6.30;4.68;;;24.40;99.90;;;;;;4594213;19;20010;-22
2023/06/16 17:38:16;;;;;;;10.15;4.15;;;24.30;99.90;;;;;;4594599;19;20019;-23
2023/06/16 17:39:47;;;;;;;6.57;5.07;;;24.30;99.90;;;;;;4591929;19;20017;-24
2023/06/16 17:41:19;;;;;;;10.48;5.18;;;24.30;99.90;;;;;;4593439;19;20459;-23
2023/06/16 17:42:50;;;;;;;;;;;24.30;99.90;;;;;;4594160;19;20673;-24
2023/06/16 17:44:22;;;;;;;10.35;4.90;;;24.20;99.90;;;;;;4593196;19;19915;-26
2023/06/16 17:45:54;;;;;;;8.35;4.55;;;24.20;99.90;;;;;;4591894;19;20037;-25
2023/06/16 17:47:25;;;;;;;6.00;4.18;;;24.10;99.90;;;;;;4590704;19;20348;-26
2023/06/16 17:48:56;;;;;;;5.38;2.97;;;24.10;99.90;;;;;;4592738;19;20018;-25
2023/06/16 17:50:28;;;;;;;6.88;3.45;;;24.10;99.90;;;;;;4590644;19;20063;-27
2023/06/16 17:52:00;;;;;;;;;;;24.10;99.90;;;;;;4594717;19;20039;-24
2023/06/16 17:53:31;;;;;;;8.02;4.95;;;24.10;99.90;;;;;;4594311;19;19918;-27
2023/06/16 17:55:02;;;;;;;;;;;24.10;99.90;;;;;;4594918;19;20011;-25
2023/06/16 17:56:34;;;;;;;6.95;4.35;;;24.00;99.90;;;;;;4594381;19;19922;-24
2023/06/16 17:58:06;;;;;;;8.18;4.85;;;24.00;99.90;;;;;;4592225;19;20354;-22
2023/06/16 17:59:37;;;;;;;7.90;4.75;;;23.90;99.90;;;;;;4591920;19;20010;-23
2023/06/16 18:01:08;;;;;;;5.68;4.10;;;23.90;99.90;;;;;;4591176;19;20033;-26
2023/06/16 18:02:39;;;;;;;4.60;3.40;;;23.90;99.90;;;;;;4590645;19;20498;-26
2023/06/16 18:04:11;;;;;;;4.05;3.10;;;23.80;99.90;;;;;;4591539;19;20030;-25
2023/06/16 18:05:42;;;;;;;4.35;2.83;;;23.80;99.90;;;;;;4593465;19;20010;-22
2023/06/16 18:07:13;;;;;;;;;;;23.80;99.90;;;;;;4595016;19;20018;-27
2023/06/16 18:08:45;;;;;;;5.25;2.85;;;23.70;99.90;;;;;;4592791;19;19919;-28
2023/06/16 18:10:16;;;;;;;3.97;2.55;;;23.70;99.90;;;;;;4590793;19;20020;-25
2023/06/16 18:11:47;;;;;;;4.30;2.42;;;23.70;99.90;;;;;;4593153;19;20037;-25
2023/06/16 18:13:19;;;;;;;3.25;2.05;;;23.70;99.90;;;;;;4593113;19;20019;-29
2023/06/16 18:14:50;;;;;;;;;;;23.70;99.90;;;;;;4594080;19;20011;-24
2023/06/16 18:16:21;;;;;;;2.08;1.60;;;23.60;99.90;;;;;;4593408;19;19914;-23
2023/06/16 18:17:53;;;;;;;2.40;1.98;;;23.60;99.90;;;;;;4589998;19;20015;-24
2023/06/16 18:19:24;;;;;;;2.88;1.58;;;23.60;99.90;;;;;;4591420;19;20025;-25
2023/06/16 18:20:55;;;;;;;2.75;1.60;;;23.50;99.90;;;;;;4589003;19;20495;-29
2023/06/16 18:22:27;;;;;;;2.03;1.50;;;23.50;99.90;;;;;;4592245;19;20018;-22
2023/06/16 18:24:00;;;;;;;1.63;1.25;;;23.50;99.90;;;;;;4592616;19;20477;-25
2023/06/16 18:25:31;;;;;;;1.55;1.05;;;23.40;99.90;;;;;;4588451;19;20031;-23
2023/06/16 18:27:02;;;;;;;2.20;1.27;;;23.40;99.90;;;;;;4591162;19;20029;-25
2023/06/16 18:28:33;;;;;;;1.20;0.88;;;23.40;99.90;;;;;;4591560;19;20015;-24
2023/06/16 18:30:05;;;;;;;1.20;1.10;;;23.40;99.90;;;;;;4591357;19;20406;-27
2023/06/16 18:31:37;;;;;;;1.08;0.90;;;23.30;99.90;;;;;;4593541;19;20482;-23
2023/06/16 18:33:08;;;;;;;1.38;0.98;;;23.30;99.90;;;;;;4593543;19;20010;-25
2023/06/16 18:34:39;;;;;;;1.08;0.98;;;23.20;99.90;;;;;;4593222;19;20031;-25
2023/06/16 18:36:11;;;;;;;2.08;0.98;;;23.30;99.90;;;;;;4592369;19;20078;-26
2023/06/16 18:37:43;;;;;;;1.20;1.00;;;23.20;99.90;;;;;;4592485;19;20015;-24
2023/06/16 18:39:18;;;;;;;;;;;23.20;99.90;;;;;;4592084;19;20555;-25
2023/06/16 18:40:49;;;;;;;1.38;1.08;;;23.20;99.90;;;;;;4590351;19;19910;-26
2023/06/16 18:42:20;;;;;;;1.80;1.23;;;23.20;99.90;;;;;;4595261;19;20006;-27
2023/06/16 18:43:52;;;;;;;1.50;1.15;;;23.10;99.90;;;;;;4593077;19;20014;-24
2023/06/16 18:45:23;;;;;;;1.73;1.30;;;23.10;99.90;;;;;;4592121;19;20355;-25
2023/06/16 18:46:54;;;;;;;2.25;1.48;;;23.10;99.90;;;;;;4590856;19;20034;-23
2023/06/16 18:48:26;;;;;;;1.38;1.27;;;23.10;99.90;;;;;;4591340;19;20074;-22
2023/06/16 18:49:57;;;;;;;1.92;1.50;;;23.00;99.90;;;;;;4593086;19;20015;-25
2023/06/16 18:51:30;;;;;;;2.03;1.40;;;23.00;99.90;;;;;;4590942;19;20089;-25
2023/06/16 18:53:02;;;;;;;2.65;2.00;;;23.00;99.90;;;;;;4591206;19;20014;-25
2023/06/16 18:54:33;;;;;;;;;;;23.00;99.90;;;;;;4592339;19;20119;-23
2023/06/16 18:56:04;;;;;;;2.78;1.92;;;22.90;99.90;;;;;;4590093;19;20074;-24
2023/06/16 18:57:37;;;;;;;3.60;2.30;;;22.90;99.90;;;;;;4593116;19;20010;-26
2023/06/16 18:59:08;;;;;;;3.42;2.67;;;22.90;99.90;;;;;;4591467;19;20010;-26
2023/06/16 19:00:39;;;;;;;4.13;2.70;;;22.90;99.90;;;;;;4592366;19;20022;-27
2023/06/16 19:02:10;;;;;;;4.40;3.38;;;22.90;99.90;;;;;;4591931;19;20535;-27
2023/06/16 19:03:43;;;;;;;4.55;3.03;;;22.80;99.90;;;;;;4592142;19;20010;-23
2023/06/16 19:05:14;;;;;;;4.22;3.20;;;22.80;99.90;;;;;;4592546;19;20019;-25
2023/06/16 19:06:45;;;;;;;;;;;22.80;99.90;;;;;;4593566;19;20017;-25
2023/06/16 19:08:16;;;;;;;3.97;3.30;;;22.80;99.90;;;;;;4590398;19;19932;-27
2023/06/16 19:09:48;;;;;;;4.03;3.35;;;22.80;99.90;;;;;;4592249;19;20014;-25
2023/06/16 19:11:20;;;;;;;4.07;3.20;;;22.70;99.90;;;;;;4589323;19;20015;-25
2023/06/16 19:12:52;;;;;;;4.00;3.05;;;22.70;99.90;;;;;;4591154;19;20018;-23
2023/06/16 19:14:25;;;;;;;4.18;3.42;;;22.70;99.90;;;;;;4592751;19;20324;-28
2023/06/16 19:15:56;;;;;;;4.07;3.30;;;22.70;99.90;;;;;;4591924;19;20018;-26
2023/06/16 19:17:27;;;;;;;4.68;3.50;;;22.70;99.90;;;;;;4592623;19;20014;-26
2023/06/16 19:18:58;;;;;;;3.60;2.83;;;22.70;99.90;;;;;;4592706;19;20003;-24
2023/06/16 19:20:31;;;;;;;4.80;3.80;;;22.70;99.90;;;;;;4592753;19;20455;-24
2023/06/16 19:22:03;;;;;;;4.50;3.65;;;22.60;99.90;;;;;;4592151;19;20475;-23
2023/06/16 19:23:35;;;;;;;5.45;4.40;;;22.60;99.90;;;;;;4592542;19;20033;-23
2023/06/16 19:25:08;;;;;;;5.65;4.13;;;22.60;99.90;;;;;;4592419;19;20426;-28
2023/06/16 19:26:39;;;;;;;8.52;7.63;;;22.60;99.90;;;;;;4590653;19;20364;-23
2023/06/16 19:28:13;;;;;;;8.45;7.55;;;21.50;99.90;;;;;;4590537;19;20014;-25
2023/06/16 19:29:45;;;;;;;8.50;7.63;;;20.20;99.90;;;;;;4591160;19;20018;-26
2023/06/16 19:31:19;;;;;;;10.02;9.02;;;19.40;99.90;;;;;;4591667;19;20494;-28
2023/06/16 19:32:51;;;;;;;9.65;8.65;;;18.90;99.90;;;;;;4590674;19;20486;-26
2023/06/16 19:34:22;;;;;;;9.77;8.30;;;18.70;99.90;;;;;;4591444;19;20018;-28
2023/06/16 19:35:55;;;;;;;11.60;9.60;;;18.50;99.90;;;;;;4591028;19;20022;-23
2023/06/16 19:37:30;;;;;;;13.85;10.55;;;18.40;99.90;;;;;;4591457;19;20032;-22
2023/06/16 19:39:01;;;;;;;11.23;9.35;;;18.30;99.90;;;;;;4590592;19;20404;-24
2023/06/16 19:40:33;;;;;;;13.25;9.20;;;18.30;99.90;;;;;;4589993;19;20356;-26
2023/06/16 19:42:07;;;;;;;10.00;8.57;;;18.30;99.90;;;;;;4591921;19;20073;-28
2023/06/16 19:43:40;;;;;;;10.65;7.93;;;18.30;99.90;;;;;;4591801;19;20021;-25
2023/06/16 19:45:13;;;;;;;8.30;7.35;;;18.20;99.90;;;;;;4591628;19;20018;-24
2023/06/16 19:46:46;;;;;;;8.77;7.88;;;18.20;99.90;;;;;;4591383;19;20006;-25
2023/06/16 19:48:17;;;;;;;9.98;8.77;;;18.20;99.90;;;;;;4591629;19;20018;-26
2023/06/16 19:49:49;;;;;;;11.40;8.88;;;18.10;99.90;;;;;;4591336;19;20361;-24
2023/06/16 19:51:23;;;;;;;;;;;18.10;99.90;;;;;;4592058;19;20011;-25
2023/06/16 19:52:54;;;;;;;12.68;9.40;;;18.10;99.90;;;;;;4591642;19;19929;-28
2023/06/16 19:54:25;;;;;;;11.90;9.20;;;18.10;99.90;;;;;;4590638;19;20002;-27
2023/06/16 19:55:56;;;;;;;10.30;8.90;;;18.10;99.90;;;;;;4591679;19;20006;-26
2023/06/16 19:57:27;;;;;;;11.55;9.35;;;18.10;99.90;;;;;;4591356;19;20052;-25
2023/06/16 19:59:00;;;;;;;;;;;18.10;99.90;;;;;;4591173;19;20011;-28
2023/06/16 20:00:33;;;;;;;14.05;10.65;;;18.10;99.90;;;;;;4591445;19;19914;-25
2023/06/16 20:02:06;;;;;;;12.32;10.82;;;18.10;99.90;;;;;;4590122;19;20033;-25
2023/06/16 20:03:37;;;;;;;12.73;10.43;;;18.10;99.90;;;;;;4589852;19;20011;-25
2023/06/16 20:05:08;;;;;;;13.68;11.52;;;18.10;99.90;;;;;;4591628;19;20007;-23
2023/06/16 20:06:40;;;;;;;11.30;9.73;;;18.00;99.90;;;;;;4590700;19;20006;-24
2023/06/16 20:08:13;;;;;;;11.50;9.68;;;18.10;99.90;;;;;;4591093;19;20365;-22
2023/06/16 20:09:46;;;;;;;11.15;9.63;;;18.00;99.90;;;;;;4590996;19;20482;-26
2023/06/16 20:11:18;;;;;;;13.75;10.95;;;18.00;99.90;;;;;;4591326;19;20015;-28
2023/06/16 20:12:49;;;;;;;27.23;20.52;;;18.00;99.90;;;;;;4590311;19;20009;-26
2023/06/16 20:14:22;;;;;;;32.45;27.45;;;18.00;99.90;;;;;;4590757;19;20374;-23
2023/06/16 20:15:54;;;;;;;28.80;21.63;;;18.00;99.90;;;;;;4591284;19;20028;-24
2023/06/16 20:17:25;;;;;;;22.05;17.35;;;18.00;99.90;;;;;;4591219;19;20040;-25
2023/06/16 20:18:57;;;;;;;18.83;14.48;;;18.00;99.90;;;;;;4591779;19;20018;-27
2023/06/16 20:20:30;;;;;;;17.70;13.63;;;18.00;99.90;;;;;;4589857;19;20066;-27
2023/06/16 20:22:01;;;;;;;17.58;14.30;;;18.00;99.90;;;;;;4590189;19;20358;-27
2023/06/16 20:23:34;;;;;;;17.02;13.93;;;17.90;99.90;;;;;;4590018;19;20033;-24
2023/06/16 20:25:08;;;;;;;17.23;14.77;;;17.90;99.90;;;;;;4590701;19;20022;-27
2023/06/16 20:26:40;;;;;;;18.25;15.07;;;17.90;99.90;;;;;;4589606;19;20101;-23
2023/06/16 20:28:12;;;;;;;22.75;16.45;;;17.90;99.90;;;;;;4590858;19;20462;-24
2023/06/16 20:29:48;;;;;;;23.40;16.30;;;17.90;99.90;;;;;;4590391;19;20062;-25
2023/06/16 20:31:20;;;;;;;20.60;15.35;;;17.90;99.90;;;;;;4590718;19;20007;-28
2023/06/16 20:32:51;;;;;;;30.92;22.25;;;17.90;99.90;;;;;;4590856;19;20084;-27
2023/06/16 20:34:23;;;;;;;33.28;24.98;;;17.90;99.90;;;;;;4591157;19;20086;-24
2023/06/16 20:35:55;;;;;;;33.90;24.95;;;17.90;99.90;;;;;;4591261;19;20014;-24
2023/06/16 20:37:29;;;;;;;24.30;18.50;;;17.90;99.90;;;;;;4590576;19;20010;-24
2023/06/16 20:39:01;;;;;;;21.60;14.90;;;17.80;99.90;;;;;;4589707;19;20011;-24
2023/06/16 20:40:33;;;;;;;;;;;17.80;99.90;;;;;;4589553;19;20021;-28
2023/06/16 20:42:05;;;;;;;21.15;15.63;;;17.80;99.90;;;;;;4590648;19;19923;-24
2023/06/16 20:43:37;;;;;;;16.92;12.43;;;17.80;99.90;;;;;;4590340;19;20010;-22
2023/06/16 20:45:15;;;;;;;15.13;12.40;;;17.80;99.90;;;;;;4590511;19;20113;-24
2023/06/16 20:46:47;;;;;;;17.60;12.93;;;17.80;99.90;;;;;;4588417;19;20022;-27
2023/06/16 20:48:20;;;;;;;14.45;11.55;;;17.80;99.90;;;;;;4588631;19;20039;-24
2023/06/16 20:49:53;;;;;;;17.30;12.40;;;17.70;99.90;;;;;;4590507;19;20018;-25
2023/06/16 20:51:25;;;;;;;16.40;11.60;;;17.70;99.90;;;;;;4590623;19;20010;-24
2023/06/16 20:52:57;;;;;;;14.82;11.32;;;17.70;99.90;;;;;;4590579;19;20023;-22
2023/06/16 20:54:29;;;;;;;12.98;10.43;;;17.70;99.90;;;;;;4590981;19;20023;-25
2023/06/16 20:56:01;;;;;;;14.98;11.13;;;17.70;99.90;;;;;;4590488;19;20503;-28
2023/06/16 20:57:33;;;;;;;17.55;13.10;;;17.70;99.90;;;;;;4590488;19;20088;-26
2023/06/16 20:59:05;;;;;;;24.77;15.73;;;17.70;99.90;;;;;;4590586;19;20018;-23
2023/06/16 21:00:37;;;;;;;21.58;15.88;;;17.70;99.90;;;;;;4590560;19;20015;-26
2023/06/16 21:02:09;;;;;;;22.33;15.63;;;17.70;99.90;;;;;;4590104;19;20048;-23
2023/06/16 21:03:40;;;;;;;21.13;15.00;;;17.70;99.90;;;;;;4589106;19;20038;-25
2023/06/16 21:05:12;;;;;;;19.88;14.35;;;17.70;99.90;;;;;;4589027;19;20011;-29
2023/06/16 21:06:45;;;;;;;18.08;14.18;;;17.70;99.90;;;;;;4589093;19;20010;-26
2023/06/16 21:08:16;;;;;;;16.10;13.65;;;17.70;99.90;;;;;;4588791;19;20415;-27
2023/06/16 21:09:48;;;;;;;15.55;12.15;;;17.70;99.90;;;;;;4590077;19;20029;-26
2023/06/16 21:11:20;;;;;;;16.65;12.57;;;17.70;99.90;;;;;;4590266;19;20592;-24